Jetersville, Virginia
Current Conditions -  °F | °C
As of 1:55 AM on Friday 28 Nov 2014 (Local Time) from KW81 Reporting Station
Clear Clear  
Wind Chill: 27°   Ceiling: Unl
Heat Index: 33°   Visibility: 10mi
Dew Point: 23°   Wind: 7mph
Humidity: 66%   Direction: 300°WNW
Pressure: 30.22"   Gusts: NA
Location:  37.29°N, 78.09°W
Report Text: KW81 280655Z AUTO 30006KT 10SM CLR 01/M05 A3022 RMK AO1 T00051051
Loading
Personal Weather Stations






























Interactive Weather Map New forecast layout! Learn more

10-Day Weather Forecast

Advertisements
Track Severe Weather on mobile